Kastav — 9AA6417 — position and weather

sailwx.info

Track history (hours):
 
Tides and Currents Weather Stations Pressure Air Temp Water Temp Dewpoint Dewpoint Depression Visibility Wind Speed Wind Dir Waves Ship Positions

Kastav

Last reported at 2016-Apr-29 11:33 UTC. Time now 2016-May-01 23:10 UTC.
Position N 29°46' W 090°02'.

Length 195 m; draft 11.3 m.

Type: Tanker. MMSI: 238257000.

Date/timePositionNaut miles runAvg speedWind from/ knotsBaromVisibWave heightAir tempDewpointWater temp
2016-Apr-29 11:33N 29°46' W 090°02'10 9.9
2016-Apr-29 10:33N 29°54' W 089°54'9 9.2
2016-Apr-29 09:33N 29°55' W 090°05'3 2.5
2016-Apr-29 08:22N 29°55' W 090°08'0 0.0
2016-Apr-29 07:31N 29°55' W 090°08'0 0.0
2016-Apr-29 05:28N 29°55' W 090°08'0 0.0
2016-Apr-29 04:19N 29°55' W 090°08'0 0.0
2016-Apr-29 03:10N 29°55' W 090°08'0 0.0
2016-Apr-29 02:31N 29°55' W 090°08'0 0.0
2016-Apr-29 01:25N 29°55' W 090°08'0 0.0
2016-Apr-29 00:22N 29°55' W 090°08'0 0.0
2016-Apr-28 23:28N 29°55' W 090°08'0 0.0
2016-Apr-28 22:25N 29°55' W 090°08'0 0.0
2016-Apr-28 21:28N 29°55' W 090°08'0 0.0
2016-Apr-28 20:28N 29°55' W 090°08'0 0.0
2016-Apr-28 19:31N 29°55' W 090°08'0 0.0
2016-Apr-28 18:31N 29°55' W 090°08'0 0.0
2016-Apr-28 16:31N 29°55' W 090°08'0 0.0
2016-Apr-28 15:31N 29°55' W 090°08'0 0.0
2016-Apr-28 14:22N 29°55' W 090°08'0 0.0
2016-Apr-28 13:22N 29°55' W 090°08'0 0.0
2016-Apr-28 12:28N 29°55' W 090°08'0 0.0
2016-Apr-28 11:28N 29°55' W 090°08'0 0.0
2016-Apr-28 10:31N 29°55' W 090°08'0 0.0
2016-Apr-28 09:31N 29°55' W 090°08'0 0.0
2016-Apr-28 08:28N 29°55' W 090°08'0 0.0
2016-Apr-28 07:31N 29°55' W 090°08'0 0.0
2016-Apr-28 06:25N 29°55' W 090°08'0 0.0
2016-Apr-28 05:28N 29°55' W 090°08'0 0.0
2016-Apr-28 04:31N 29°55' W 090°08'0 0.0
2016-Apr-28 03:31N 29°55' W 090°08'0 0.0
2016-Apr-28 02:28N 29°55' W 090°08'0 0.0
2016-Apr-28 01:31N 29°55' W 090°08'0 0.0
2016-Apr-27 23:25N 29°55' W 090°08'2 1.7
2016-Apr-27 22:26N 29°55' W 090°06'1 1.6
2016-Apr-27 21:32N 29°55' W 090°05'0 0.0
2016-Apr-27 20:32N 29°55' W 090°05'0 0.0
2016-Apr-27 19:11N 29°55' W 090°05'0 0.0
2016-Apr-27 18:32N 29°55' W 090°05'0 0.0
2016-Apr-27 17:32N 29°55' W 090°05'0 0.0
2016-Apr-27 16:32N 29°55' W 090°05'0 0.0
2016-Apr-27 15:32N 29°55' W 090°05'0 0.0
2016-Apr-27 14:32N 29°55' W 090°05'0 0.0
2016-Apr-27 13:32N 29°55' W 090°05'0 0.0
2016-Apr-27 12:32N 29°55' W 090°05'0 0.0
2016-Apr-27 11:32N 29°55' W 090°05'0 0.0
2016-Apr-27 10:32N 29°55' W 090°05'0 0.0
2016-Apr-27 09:32N 29°55' W 090°05'0 0.0
2016-Apr-27 08:32N 29°55' W 090°05'0 0.0
2016-Apr-27 07:32N 29°55' W 090°05'0 0.0
2016-Apr-27 06:32N 29°55' W 090°05'0 0.0
2016-Apr-27 05:32N 29°55' W 090°05'0 0.0
2016-Apr-27 04:32N 29°55' W 090°05'0 0.0
2016-Apr-27 03:32N 29°55' W 090°05'0 0.0
2016-Apr-27 02:32N 29°55' W 090°05'0 0.0
2016-Apr-27 01:32N 29°55' W 090°05'0 0.0
2016-Apr-27 00:32N 29°55' W 090°05'0 0.0
2016-Apr-26 23:32N 29°55' W 090°05'0 0.0
2016-Apr-26 22:32N 29°55' W 090°05'0 0.0
2016-Apr-26 21:32N 29°55' W 090°05'0 0.0
2016-Apr-26 20:32N 29°55' W 090°05'0 0.0
2016-Apr-26 19:32N 29°55' W 090°05'0 0.0
2016-Apr-26 18:32N 29°55' W 090°05'0 0.0
2016-Apr-26 17:32N 29°55' W 090°05'0 0.0
2016-Apr-26 16:32N 29°55' W 090°05'0 0.0
2016-Apr-26 15:32N 29°55' W 090°05'0 0.0
2016-Apr-26 14:32N 29°55' W 090°05'0 0.0
2016-Apr-26 13:32N 29°55' W 090°05'0 0.0
2016-Apr-26 12:32N 29°55' W 090°05'0 0.0
2016-Apr-26 11:32N 29°55' W 090°05'0 0.0
2016-Apr-26 10:32N 29°55' W 090°05'0 0.0
2016-Apr-26 09:32N 29°55' W 090°05'0 0.0
2016-Apr-26 08:32N 29°55' W 090°05'0 0.0
2016-Apr-26 07:32N 29°55' W 090°05'0 0.0
2016-Apr-26 06:32N 29°55' W 090°05'0 0.0
2016-Apr-26 05:32N 29°55' W 090°05'0 0.3
2016-Apr-26 04:34N 29°55' W 090°04'4 4.5
2016-Apr-26 03:34N 29°56' W 089°59'5 4.6
2016-Apr-26 02:33N 29°54' W 089°55'0 0.0
2016-Apr-26 01:30N 29°54' W 089°55'0 0.0
2016-Apr-26 00:33N 29°54' W 089°55'0 0.0
2016-Apr-25 23:33N 29°54' W 089°55'0 0.0
2016-Apr-25 21:30N 29°54' W 089°55'0 0.0
2016-Apr-25 20:33N 29°54' W 089°55'0 0.0
2016-Apr-25 19:33N 29°54' W 089°55'0 0.0
2016-Apr-25 18:33N 29°54' W 089°55'0 0.0
2016-Apr-25 17:27N 29°54' W 089°55'0 0.0
2016-Apr-25 16:27N 29°54' W 089°55'0 0.0
2016-Apr-25 15:27N 29°54' W 089°55'0 0.0
2016-Apr-25 14:27N 29°54' W 089°55'0 0.0
2016-Apr-25 13:33N 29°54' W 089°55'0 0.0
2016-Apr-25 12:33N 29°54' W 089°55'0 0.0
2016-Apr-25 11:24N 29°54' W 089°55'0 0.0
2016-Apr-25 10:24N 29°54' W 089°55'0 0.0
2016-Apr-25 09:18N 29°54' W 089°55'0 0.0
2016-Apr-25 07:30N 29°54' W 089°55'0 0.0
2016-Apr-25 06:33N 29°54' W 089°55'0 0.0
2016-Apr-25 05:33N 29°54' W 089°55'0 0.0
2016-Apr-25 04:30N 29°54' W 089°55'0 0.0
2016-Apr-25 03:27N 29°54' W 089°55'0 0.0
2016-Apr-25 02:24N 29°54' W 089°55'0 0.0
2016-Apr-25 01:33N 29°54' W 089°55'0 0.0
2016-Apr-25 00:30N 29°54' W 089°55'0 0.0
2016-Apr-24 22:15N 29°54' W 089°55'0 0.0
2016-Apr-24 21:27N 29°54' W 089°55'0 0.0
2016-Apr-24 20:27N 29°54' W 089°55'0 0.0
2016-Apr-24 18:27N 29°54' W 089°55'0 0.0
2016-Apr-24 17:33N 29°54' W 089°55'0 0.0
2016-Apr-24 16:30N 29°54' W 089°55'0 0.0
2016-Apr-24 15:30N 29°54' W 089°55'0 0.0
2016-Apr-24 14:24N 29°54' W 089°55'0 0.0
2016-Apr-24 13:33N 29°54' W 089°55'0 0.0
2016-Apr-24 12:30N 29°54' W 089°55'0 0.0
2016-Apr-24 11:33N 29°54' W 089°55'0 0.0
2016-Apr-24 10:30N 29°54' W 089°55'0 0.0
2016-Apr-24 09:12N 29°54' W 089°55'0 0.0
2016-Apr-24 08:21N 29°54' W 089°55'0 0.0
2016-Apr-24 07:33N 29°54' W 089°55'0 0.0
2016-Apr-24 06:33N 29°54' W 089°55'0 0.0
2016-Apr-24 05:24N 29°54' W 089°55'0 0.0
2016-Apr-24 04:30N 29°54' W 089°55'0 0.0
2016-Apr-24 03:33N 29°54' W 089°55'0 0.0
2016-Apr-24 02:33N 29°54' W 089°55'0 0.0
2016-Apr-24 01:30N 29°54' W 089°55'0 0.0
2016-Apr-24 00:33N 29°54' W 089°55'0 0.0
2016-Apr-23 23:33N 29°54' W 089°55'0 0.0
2016-Apr-23 22:33N 29°54' W 089°55'0 0.0
2016-Apr-23 18:24N 29°54' W 089°55'0 0.0
2016-Apr-23 16:21N 29°54' W 089°55'0 0.0
2016-Apr-23 15:18N 29°54' W 089°55'0 0.0
2016-Apr-23 14:30N 29°54' W 089°55'0 0.0
2016-Apr-23 13:24N 29°54' W 089°55'0 0.0
2016-Apr-23 12:06N 29°54' W 089°55'0 0.0
2016-Apr-23 10:30N 29°54' W 089°55'0 0.0
2016-Apr-23 09:30N 29°54' W 089°55'0 0.0
2016-Apr-23 01:33N 29°54' W 089°55'0 0.0
2016-Apr-23 00:33N 29°54' W 089°55'0 0.0
2016-Apr-22 22:33N 29°54' W 089°55'0 0.0
2016-Apr-22 21:30N 29°54' W 089°55'0 0.0
2016-Apr-22 20:30N 29°54' W 089°55'0 0.0
2016-Apr-22 19:21N 29°54' W 089°55'0 0.0
2016-Apr-22 18:27N 29°54' W 089°55'0 0.0
2016-Apr-22 17:33N 29°54' W 089°55'0 0.0
2016-Apr-22 15:21N 29°54' W 089°55'0 0.0
2016-Apr-22 14:27N 29°54' W 089°55'0 0.0
2016-Apr-22 13:27N 29°54' W 089°55'0 0.0
2016-Apr-22 12:33N 29°54' W 089°55'0 0.0
2016-Apr-22 11:33N 29°54' W 089°55'0 0.0
2016-Apr-22 10:33N 29°54' W 089°55'0 0.0
2016-Apr-22 09:33N 29°54' W 089°55'0 0.0
2016-Apr-22 08:33N 29°54' W 089°55'0 0.0
2016-Apr-22 07:33N 29°54' W 089°55'0 0.0
2016-Apr-22 06:33N 29°54' W 089°55'0 0.0
2016-Apr-22 05:33N 29°54' W 089°55'0 0.0
2016-Apr-22 04:33N 29°54' W 089°55'0 0.0
2016-Apr-22 03:30N 29°54' W 089°55'0 0.0
2016-Apr-22 02:33N 29°54' W 089°55'0 0.0
2016-Apr-22 01:33N 29°54' W 089°55'0 0.0
2016-Apr-22 00:33N 29°54' W 089°55'0 0.0
2016-Apr-21 23:33N 29°54' W 089°55'0 0.0
2016-Apr-21 22:33N 29°54' W 089°55'0 0.0
2016-Apr-21 21:33N 29°54' W 089°55'0 0.0
2016-Apr-21 20:33N 29°54' W 089°55'0 0.0
2016-Apr-21 19:33N 29°54' W 089°55'0 0.0
2016-Apr-21 18:33N 29°54' W 089°55'0 0.0
2016-Apr-21 17:33N 29°54' W 089°55'0 0.0
2016-Apr-21 16:30N 29°54' W 089°55'0 0.0
2016-Apr-21 15:30N 29°54' W 089°55'0 0.0
2016-Apr-21 14:33N 29°54' W 089°55'0 0.0
2016-Apr-21 13:33N 29°54' W 089°55'0 0.0
2016-Apr-21 12:33N 29°54' W 089°55'0 0.0
2016-Apr-21 11:33N 29°54' W 089°55'0 0.0
2016-Apr-21 10:33N 29°54' W 089°55'0 0.0
2016-Apr-21 09:33N 29°54' W 089°55'0 0.0
2016-Apr-21 08:33N 29°54' W 089°55'0 0.0
2016-Apr-21 07:30N 29°54' W 089°55'0 0.0
2016-Apr-21 06:33N 29°54' W 089°55'0 0.0
2016-Apr-21 05:33N 29°54' W 089°55'0 0.0
2016-Apr-21 04:30N 29°54' W 089°55'0 0.0
2016-Apr-21 03:30N 29°54' W 089°55'0 0.0
2016-Apr-21 02:33N 29°54' W 089°55'0 0.0
2016-Apr-21 01:27N 29°54' W 089°55'0 0.0
2016-Apr-21 00:33N 29°54' W 089°55'0 0.0
2016-Apr-20 23:33N 29°54' W 089°55'0 0.0
2016-Apr-20 22:33N 29°54' W 089°55'0 0.0
2016-Apr-20 21:33N 29°54' W 089°55'0 0.0
2016-Apr-20 20:33N 29°54' W 089°55'0 0.0
2016-Apr-20 19:33N 29°54' W 089°55'0 0.0
2016-Apr-20 18:33N 29°54' W 089°55'0 0.0
2016-Apr-20 17:33N 29°54' W 089°55'0 0.0
2016-Apr-20 16:33N 29°54' W 089°55'0 0.0
2016-Apr-20 15:27N 29°54' W 089°55'0 0.0
2016-Apr-20 14:33N 29°54' W 089°55'0 0.0
2016-Apr-20 13:33N 29°54' W 089°55'0 0.0
2016-Apr-20 12:33N 29°54' W 089°55'0 0.0
2016-Apr-20 11:33N 29°54' W 089°55'0 0.0
2016-Apr-20 10:33N 29°54' W 089°55'0 0.0
2016-Apr-20 09:33N 29°54' W 089°55'0 0.0
2016-Apr-20 08:33N 29°54' W 089°55'0 0.0
2016-Apr-20 07:33N 29°54' W 089°55'  
Track history (hours):
 
Tides and Currents Weather Stations Pressure Air Temp Water Temp Dewpoint Dewpoint Depression Visibility Wind Speed Wind Dir Waves Ship Positions

Kastav

Last reported at 2016-Apr-29 11:33 UTC. Time now 2016-May-01 23:10 UTC.
Position N 29°46' W 090°02'.

Length 195 m; draft 11.3 m.

Type: Tanker. MMSI: 238257000.

Date/timePositionNaut miles runAvg speedWind from/ knotsBaromVisibWave heightAir tempDewpointWater temp
2016-Apr-29 11:33N 29°46' W 090°02'10 9.9
2016-Apr-29 10:33N 29°54' W 089°54'9 9.2
2016-Apr-29 09:33N 29°55' W 090°05'3 2.5
2016-Apr-29 08:22N 29°55' W 090°08'0 0.0
2016-Apr-29 07:31N 29°55' W 090°08'0 0.0
2016-Apr-29 05:28N 29°55' W 090°08'0 0.0
2016-Apr-29 04:19N 29°55' W 090°08'0 0.0
2016-Apr-29 03:10N 29°55' W 090°08'0 0.0
2016-Apr-29 02:31N 29°55' W 090°08'0 0.0
2016-Apr-29 01:25N 29°55' W 090°08'0 0.0
2016-Apr-29 00:22N 29°55' W 090°08'0 0.0
2016-Apr-28 23:28N 29°55' W 090°08'0 0.0
2016-Apr-28 22:25N 29°55' W 090°08'0 0.0
2016-Apr-28 21:28N 29°55' W 090°08'0 0.0
2016-Apr-28 20:28N 29°55' W 090°08'0 0.0
2016-Apr-28 19:31N 29°55' W 090°08'0 0.0
2016-Apr-28 18:31N 29°55' W 090°08'0 0.0
2016-Apr-28 16:31N 29°55' W 090°08'0 0.0
2016-Apr-28 15:31N 29°55' W 090°08'0 0.0
2016-Apr-28 14:22N 29°55' W 090°08'0 0.0
2016-Apr-28 13:22N 29°55' W 090°08'0 0.0
2016-Apr-28 12:28N 29°55' W 090°08'0 0.0
2016-Apr-28 11:28N 29°55' W 090°08'0 0.0
2016-Apr-28 10:31N 29°55' W 090°08'0 0.0
2016-Apr-28 09:31N 29°55' W 090°08'0 0.0
2016-Apr-28 08:28N 29°55' W 090°08'0 0.0
2016-Apr-28 07:31N 29°55' W 090°08'0 0.0
2016-Apr-28 06:25N 29°55' W 090°08'0 0.0
2016-Apr-28 05:28N 29°55' W 090°08'0 0.0
2016-Apr-28 04:31N 29°55' W 090°08'0 0.0
2016-Apr-28 03:31N 29°55' W 090°08'0 0.0
2016-Apr-28 02:28N 29°55' W 090°08'0 0.0
2016-Apr-28 01:31N 29°55' W 090°08'0 0.0
2016-Apr-27 23:25N 29°55' W 090°08'2 1.7
2016-Apr-27 22:26N 29°55' W 090°06'1 1.6
2016-Apr-27 21:32N 29°55' W 090°05'0 0.0
2016-Apr-27 20:32N 29°55' W 090°05'0 0.0
2016-Apr-27 19:11N 29°55' W 090°05'0 0.0
2016-Apr-27 18:32N 29°55' W 090°05'0 0.0
2016-Apr-27 17:32N 29°55' W 090°05'0 0.0
2016-Apr-27 16:32N 29°55' W 090°05'0 0.0
2016-Apr-27 15:32N 29°55' W 090°05'0 0.0
2016-Apr-27 14:32N 29°55' W 090°05'0 0.0
2016-Apr-27 13:32N 29°55' W 090°05'0 0.0
2016-Apr-27 12:32N 29°55' W 090°05'0 0.0
2016-Apr-27 11:32N 29°55' W 090°05'0 0.0
2016-Apr-27 10:32N 29°55' W 090°05'0 0.0
2016-Apr-27 09:32N 29°55' W 090°05'0 0.0
2016-Apr-27 08:32N 29°55' W 090°05'0 0.0
2016-Apr-27 07:32N 29°55' W 090°05'0 0.0
2016-Apr-27 06:32N 29°55' W 090°05'0 0.0
2016-Apr-27 05:32N 29°55' W 090°05'0 0.0
2016-Apr-27 04:32N 29°55' W 090°05'0 0.0
2016-Apr-27 03:32N 29°55' W 090°05'0 0.0
2016-Apr-27 02:32N 29°55' W 090°05'0 0.0
2016-Apr-27 01:32N 29°55' W 090°05'0 0.0
2016-Apr-27 00:32N 29°55' W 090°05'0 0.0
2016-Apr-26 23:32N 29°55' W 090°05'0 0.0
2016-Apr-26 22:32N 29°55' W 090°05'0 0.0
2016-Apr-26 21:32N 29°55' W 090°05'0 0.0
2016-Apr-26 20:32N 29°55' W 090°05'0 0.0
2016-Apr-26 19:32N 29°55' W 090°05'0 0.0
2016-Apr-26 18:32N 29°55' W 090°05'0 0.0
2016-Apr-26 17:32N 29°55' W 090°05'0 0.0
2016-Apr-26 16:32N 29°55' W 090°05'0 0.0
2016-Apr-26 15:32N 29°55' W 090°05'0 0.0
2016-Apr-26 14:32N 29°55' W 090°05'0 0.0
2016-Apr-26 13:32N 29°55' W 090°05'0 0.0
2016-Apr-26 12:32N 29°55' W 090°05'0 0.0
2016-Apr-26 11:32N 29°55' W 090°05'0 0.0
2016-Apr-26 10:32N 29°55' W 090°05'0 0.0
2016-Apr-26 09:32N 29°55' W 090°05'0 0.0
2016-Apr-26 08:32N 29°55' W 090°05'0 0.0
2016-Apr-26 07:32N 29°55' W 090°05'0 0.0
2016-Apr-26 06:32N 29°55' W 090°05'0 0.0
2016-Apr-26 05:32N 29°55' W 090°05'0 0.3
2016-Apr-26 04:34N 29°55' W 090°04'4 4.5
2016-Apr-26 03:34N 29°56' W 089°59'5 4.6
2016-Apr-26 02:33N 29°54' W 089°55'0 0.0
2016-Apr-26 01:30N 29°54' W 089°55'0 0.0
2016-Apr-26 00:33N 29°54' W 089°55'0 0.0
2016-Apr-25 23:33N 29°54' W 089°55'0 0.0
2016-Apr-25 21:30N 29°54' W 089°55'0 0.0
2016-Apr-25 20:33N 29°54' W 089°55'0 0.0
2016-Apr-25 19:33N 29°54' W 089°55'0 0.0
2016-Apr-25 18:33N 29°54' W 089°55'0 0.0
2016-Apr-25 17:27N 29°54' W 089°55'0 0.0
2016-Apr-25 16:27N 29°54' W 089°55'0 0.0
2016-Apr-25 15:27N 29°54' W 089°55'0 0.0
2016-Apr-25 14:27N 29°54' W 089°55'0 0.0
2016-Apr-25 13:33N 29°54' W 089°55'0 0.0
2016-Apr-25 12:33N 29°54' W 089°55'0 0.0
2016-Apr-25 11:24N 29°54' W 089°55'0 0.0
2016-Apr-25 10:24N 29°54' W 089°55'0 0.0
2016-Apr-25 09:18N 29°54' W 089°55'0 0.0
2016-Apr-25 07:30N 29°54' W 089°55'0 0.0
2016-Apr-25 06:33N 29°54' W 089°55'0 0.0
2016-Apr-25 05:33N 29°54' W 089°55'0 0.0
2016-Apr-25 04:30N 29°54' W 089°55'0 0.0
2016-Apr-25 03:27N 29°54' W 089°55'0 0.0
2016-Apr-25 02:24N 29°54' W 089°55'0 0.0
2016-Apr-25 01:33N 29°54' W 089°55'0 0.0
2016-Apr-25 00:30N 29°54' W 089°55'0 0.0
2016-Apr-24 22:15N 29°54' W 089°55'0 0.0
2016-Apr-24 21:27N 29°54' W 089°55'0 0.0
2016-Apr-24 20:27N 29°54' W 089°55'0 0.0
2016-Apr-24 18:27N 29°54' W 089°55'0 0.0
2016-Apr-24 17:33N 29°54' W 089°55'0 0.0
2016-Apr-24 16:30N 29°54' W 089°55'0 0.0
2016-Apr-24 15:30N 29°54' W 089°55'0 0.0
2016-Apr-24 14:24N 29°54' W 089°55'0 0.0
2016-Apr-24 13:33N 29°54' W 089°55'0 0.0
2016-Apr-24 12:30N 29°54' W 089°55'0 0.0
2016-Apr-24 11:33N 29°54' W 089°55'0 0.0
2016-Apr-24 10:30N 29°54' W 089°55'0 0.0
2016-Apr-24 09:12N 29°54' W 089°55'0 0.0
2016-Apr-24 08:21N 29°54' W 089°55'0 0.0
2016-Apr-24 07:33N 29°54' W 089°55'0 0.0
2016-Apr-24 06:33N 29°54' W 089°55'0 0.0
2016-Apr-24 05:24N 29°54' W 089°55'0 0.0
2016-Apr-24 04:30N 29°54' W 089°55'0 0.0
2016-Apr-24 03:33N 29°54' W 089°55'0 0.0
2016-Apr-24 02:33N 29°54' W 089°55'0 0.0
2016-Apr-24 01:30N 29°54' W 089°55'0 0.0
2016-Apr-24 00:33N 29°54' W 089°55'0 0.0
2016-Apr-23 23:33N 29°54' W 089°55'0 0.0
2016-Apr-23 22:33N 29°54' W 089°55'0 0.0
2016-Apr-23 18:24N 29°54' W 089°55'0 0.0
2016-Apr-23 16:21N 29°54' W 089°55'0 0.0
2016-Apr-23 15:18N 29°54' W 089°55'0 0.0
2016-Apr-23 14:30N 29°54' W 089°55'0 0.0
2016-Apr-23 13:24N 29°54' W 089°55'0 0.0
2016-Apr-23 12:06N 29°54' W 089°55'0 0.0
2016-Apr-23 10:30N 29°54' W 089°55'0 0.0
2016-Apr-23 09:30N 29°54' W 089°55'0 0.0
2016-Apr-23 01:33N 29°54' W 089°55'0 0.0
2016-Apr-23 00:33N 29°54' W 089°55'0 0.0
2016-Apr-22 22:33N 29°54' W 089°55'0 0.0
2016-Apr-22 21:30N 29°54' W 089°55'0 0.0
2016-Apr-22 20:30N 29°54' W 089°55'0 0.0
2016-Apr-22 19:21N 29°54' W 089°55'0 0.0
2016-Apr-22 18:27N 29°54' W 089°55'0 0.0
2016-Apr-22 17:33N 29°54' W 089°55'0 0.0
2016-Apr-22 15:21N 29°54' W 089°55'0 0.0
2016-Apr-22 14:27N 29°54' W 089°55'0 0.0
2016-Apr-22 13:27N 29°54' W 089°55'0 0.0
2016-Apr-22 12:33N 29°54' W 089°55'0 0.0
2016-Apr-22 11:33N 29°54' W 089°55'0 0.0
2016-Apr-22 10:33N 29°54' W 089°55'0 0.0
2016-Apr-22 09:33N 29°54' W 089°55'0 0.0
2016-Apr-22 08:33N 29°54' W 089°55'0 0.0
2016-Apr-22 07:33N 29°54' W 089°55'0 0.0
2016-Apr-22 06:33N 29°54' W 089°55'0 0.0
2016-Apr-22 05:33N 29°54' W 089°55'0 0.0
2016-Apr-22 04:33N 29°54' W 089°55'0 0.0
2016-Apr-22 03:30N 29°54' W 089°55'0 0.0
2016-Apr-22 02:33N 29°54' W 089°55'0 0.0
2016-Apr-22 01:33N 29°54' W 089°55'0 0.0
2016-Apr-22 00:33N 29°54' W 089°55'0 0.0
2016-Apr-21 23:33N 29°54' W 089°55'0 0.0
2016-Apr-21 22:33N 29°54' W 089°55'0 0.0
2016-Apr-21 21:33N 29°54' W 089°55'0 0.0
2016-Apr-21 20:33N 29°54' W 089°55'0 0.0
2016-Apr-21 19:33N 29°54' W 089°55'0 0.0
2016-Apr-21 18:33N 29°54' W 089°55'0 0.0
2016-Apr-21 17:33N 29°54' W 089°55'0 0.0
2016-Apr-21 16:30N 29°54' W 089°55'0 0.0
2016-Apr-21 15:30N 29°54' W 089°55'0 0.0
2016-Apr-21 14:33N 29°54' W 089°55'0 0.0
2016-Apr-21 13:33N 29°54' W 089°55'0 0.0
2016-Apr-21 12:33N 29°54' W 089°55'0 0.0
2016-Apr-21 11:33N 29°54' W 089°55'0 0.0
2016-Apr-21 10:33N 29°54' W 089°55'0 0.0
2016-Apr-21 09:33N 29°54' W 089°55'0 0.0
2016-Apr-21 08:33N 29°54' W 089°55'0 0.0
2016-Apr-21 07:30N 29°54' W 089°55'0 0.0
2016-Apr-21 06:33N 29°54' W 089°55'0 0.0
2016-Apr-21 05:33N 29°54' W 089°55'0 0.0
2016-Apr-21 04:30N 29°54' W 089°55'0 0.0
2016-Apr-21 03:30N 29°54' W 089°55'0 0.0
2016-Apr-21 02:33N 29°54' W 089°55'0 0.0
2016-Apr-21 01:27N 29°54' W 089°55'0 0.0
2016-Apr-21 00:33N 29°54' W 089°55'0 0.0
2016-Apr-20 23:33N 29°54' W 089°55'0 0.0
2016-Apr-20 22:33N 29°54' W 089°55'0 0.0
2016-Apr-20 21:33N 29°54' W 089°55'0 0.0
2016-Apr-20 20:33N 29°54' W 089°55'0 0.0
2016-Apr-20 19:33N 29°54' W 089°55'0 0.0
2016-Apr-20 18:33N 29°54' W 089°55'0 0.0
2016-Apr-20 17:33N 29°54' W 089°55'0 0.0
2016-Apr-20 16:33N 29°54' W 089°55'0 0.0
2016-Apr-20 15:27N 29°54' W 089°55'0 0.0
2016-Apr-20 14:33N 29°54' W 089°55'0 0.0
2016-Apr-20 13:33N 29°54' W 089°55'0 0.0
2016-Apr-20 12:33N 29°54' W 089°55'0 0.0
2016-Apr-20 11:33N 29°54' W 089°55'0 0.0
2016-Apr-20 10:33N 29°54' W 089°55'0 0.0
2016-Apr-20 09:33N 29°54' W 089°55'0 0.0
2016-Apr-20 08:33N 29°54' W 089°55'0 0.0
2016-Apr-20 07:33N 29°54' W 089°55'  

Dump ship's entire track history